Orion, IL (61273)

7:18 AM CDT on September 28, 2016 (GMT -0500)
Burnham Family Farm | | Change Station

Elev 768 ft 41.36 °N, 90.38 °W | Updated 33 seconds ago

Mostly Cloudy
Mostly Cloudy
50.4 °F
Feels Like 50.4 °F
N
5.8
Wind Variable Wind from North
Gusts 7.4 mph

Today
High -- | Low -- °F
--% Chance of Precip.
Yesterday
High -- | Low -- °F
Precip. -- in
Pressure 29.89 in
Visibility 10.0 miles
Clouds Mostly Cloudy 2200 ft
Dew Point 49 °F
Humidity 94%
Rainfall 0.00 in
Snow Depth Not available.
6:55 AM 6:47 PM
Waning Crescent, 6% visible
METAR KMLI 281152Z 36007G16KT 10SM BKN022 11/06 A2989 RMK AO2 SLP121 T01060061 10150 20106 51023
Pressure 29.89 in
Visibility 10.0 miles
Clouds Mostly Cloudy 2200 ft
Dew Point 49 °F
Humidity 94%
Rainfall 0.00 in
Snow Depth Not available.
6:55 AM 6:47 PM
Waning Crescent, 6% visible
METAR KMLI 281152Z 36007G16KT 10SM BKN022 11/06 A2989 RMK AO2 SLP121 T01060061 10150 20106 51023

10-Day Weather Forecast

Almanac

Astronomy

Sep. 28, 2016 Rise Set
Actual Time
Civil Twilight
Nautical Twilight
Astronomical Twilight
Moon
Length of Visible Light
Length of Day
Tomorrow will be .
, % of the Moon is Illuminated

Today's Extremes

State Highs State Lows

Community

WunderPhotos

Upload Photos

1,942,236 photos uploaded!

WunderBlog® & News

Nearby

Air Quality

  Air Quality AQ Index Pollutant
Not available.

Snow Depth

Station Depth Elevation

Earthquake Activity

City Distance Mag. Time & Date
Minimum magnitude displayed is 2.5.

Coastal Water Temperatures

Place Temperature

Stations

Nearby Weather Stations

Station Location Temp. Windchill Dew Point Humidity Wind Precip. Elev Updated Type
                   

Watches & Warnings

There are currently no watches in effect.